Time;durP1;ratioP1;P1;durP2;ratioP2;P2;SDS_P1;SDS_P2;PMS_P1;PMS_P2;Temp;Humidity;BMP_temperature;BMP_pressure;BME280_temperature;BME280_humidity;BME280_pressure;Samples;Min_cycle;Max_cycle;Signal;HPM_P1;HPM_P2
2022/07/22 00:01:30;;;;;;;10.50;8.13;;;;;;;;;;5053934;28;20039;-67
2022/07/22 00:03:57;;;;;;;10.18;7.97;;;;;;;;;;5053716;28;20029;-66
2022/07/22 00:06:22;;;;;;;11.35;8.88;;;;;;;;;;5053803;28;20107;-67
2022/07/22 00:08:48;;;;;;;14.80;8.75;;;;;;;;;;5053495;28;20116;-67
2022/07/22 00:11:14;;;;;;;13.02;8.43;;;;;;;;;;5053695;28;20029;-66
2022/07/22 00:13:39;;;;;;;12.88;8.63;;;;;;;;;;5053624;28;20136;-66
2022/07/22 00:16:05;;;;;;;14.07;8.50;;;;;;;;;;5053639;28;20060;-67
2022/07/22 00:18:31;;;;;;;13.00;9.00;;;;;;;;;;5053404;28;20119;-66
2022/07/22 00:20:56;;;;;;;11.80;8.60;;;;;;;;;;5053514;28;20075;-66
2022/07/22 00:23:22;;;;;;;11.38;8.35;;;;;;;;;;5053180;28;20024;-66
2022/07/22 00:25:48;;;;;;;11.43;8.98;;;;;;;;;;5053421;28;20025;-67
2022/07/22 00:28:13;;;;;;;10.63;8.15;;;;;;;;;;5053551;28;20056;-66
2022/07/22 00:30:39;;;;;;;9.98;7.97;;;;;;;;;;5052587;28;20176;-66
2022/07/22 00:33:04;;;;;;;14.80;8.45;;;;;;;;;;5053454;28;20028;-68
2022/07/22 00:35:30;;;;;;;10.23;8.20;;;;;;;;;;5053274;28;20056;-64
2022/07/22 00:37:55;;;;;;;12.38;8.30;;;;;;;;;;5052982;28;20466;-65
2022/07/22 00:40:21;;;;;;;11.10;7.88;;;;;;;;;;5053212;28;20020;-65
2022/07/22 00:42:47;;;;;;;10.38;7.95;;;;;;;;;;5053111;28;20120;-66
2022/07/22 00:45:13;;;;;;;11.93;8.10;;;;;;;;;;5053183;28;20067;-67
2022/07/22 00:47:39;;;;;;;11.90;8.10;;;;;;;;;;5053212;28;20025;-65
2022/07/22 00:50:06;;;;;;;11.07;7.75;;;;;;;;;;5052773;28;20029;-66
2022/07/22 00:52:33;;;;;;;12.18;7.63;;;;;;;;;;5052705;28;20059;-66
2022/07/22 00:55:00;;;;;;;12.32;7.78;;;;;;;;;;5053032;28;20528;-66
2022/07/22 00:57:26;;;;;;;9.50;7.70;;;;;;;;;;5052959;28;20436;-66
2022/07/22 00:59:52;;;;;;;11.52;7.78;;;;;;;;;;5053036;28;20359;-66
2022/07/22 01:02:18;;;;;;;9.90;7.80;;;;;;;;;;5052871;28;20094;-67
2022/07/22 01:04:44;;;;;;;10.02;8.07;;;;;;;;;;5052876;28;20025;-66
2022/07/22 01:07:10;;;;;;;9.75;7.68;;;;;;;;;;5052628;28;20052;-64
2022/07/22 01:09:35;;;;;;;10.88;7.20;;;;;;;;;;5052762;28;20025;-65
2022/07/22 01:12:02;;;;;;;13.05;7.55;;;;;;;;;;5052730;28;20059;-65
2022/07/22 01:14:28;;;;;;;12.23;7.57;;;;;;;;;;5052570;28;20025;-65
2022/07/22 01:16:53;;;;;;;14.48;8.20;;;;;;;;;;5052695;28;20032;-64
2022/07/22 01:19:19;;;;;;;11.80;8.10;;;;;;;;;;5052352;28;20051;-64
2022/07/22 01:21:45;;;;;;;11.30;7.40;;;;;;;;;;5052533;28;20112;-64
2022/07/22 01:24:10;;;;;;;11.60;7.70;;;;;;;;;;5052584;28;20035;-64
2022/07/22 01:26:36;;;;;;;12.15;6.95;;;;;;;;;;5052679;28;20051;-64
2022/07/22 01:29:02;;;;;;;10.70;7.20;;;;;;;;;;5052607;28;20478;-64
2022/07/22 01:31:28;;;;;;;10.50;7.70;;;;;;;;;;5052548;28;20104;-64
2022/07/22 01:33:54;;;;;;;10.95;7.28;;;;;;;;;;5052346;28;20112;-64
2022/07/22 01:36:20;;;;;;;10.40;7.18;;;;;;;;;;5052196;28;20021;-64
2022/07/22 01:38:45;;;;;;;11.52;7.25;;;;;;;;;;5052541;28;20025;-64
2022/07/22 01:41:11;;;;;;;11.00;6.88;;;;;;;;;;5052968;28;20021;-64
2022/07/22 01:43:37;;;;;;;11.63;7.20;;;;;;;;;;5056557;28;20023;-64
2022/07/22 01:46:03;;;;;;;10.88;6.45;;;;;;;;;;5038608;28;20032;-64
2022/07/22 01:48:29;;;;;;;10.07;6.72;;;;;;;;;;5056595;28;20025;-64
2022/07/22 01:50:55;;;;;;;11.82;6.90;;;;;;;;;;5056203;28;20032;-64
2022/07/22 01:53:21;;;;;;;12.23;6.60;;;;;;;;;;5056296;28;20029;-67
2022/07/22 01:55:46;;;;;;;9.23;6.32;;;;;;;;;;5038456;28;20070;-64
2022/07/22 01:58:12;;;;;;;11.45;6.57;;;;;;;;;;5056208;28;20021;-67
2022/07/22 02:00:38;;;;;;;9.35;6.38;;;;;;;;;;5056233;28;20453;-64
2022/07/22 02:03:04;;;;;;;9.95;6.65;;;;;;;;;;5056124;28;20028;-64
2022/07/22 02:05:30;;;;;;;12.35;6.97;;;;;;;;;;5055909;28;20040;-64
2022/07/22 02:08:04;;;;;;;9.95;6.32;;;;;;;;;;5056120;28;20021;-65
2022/07/22 02:10:30;;;;;;;8.90;6.10;;;;;;;;;;5055909;28;20036;-64
2022/07/22 02:12:57;;;;;;;11.18;5.93;;;;;;;;;;5055989;28;20079;-64
2022/07/22 02:15:23;;;;;;;9.18;6.18;;;;;;;;;;5056073;28;20025;-65
2022/07/22 02:17:49;;;;;;;8.43;6.43;;;;;;;;;;5056013;28;20032;-64
2022/07/22 02:20:14;;;;;;;9.38;6.30;;;;;;;;;;5055529;28;20069;-64
2022/07/22 02:22:40;;;;;;;10.38;6.43;;;;;;;;;;5055768;28;20057;-65
2022/07/22 02:25:06;;;;;;;13.60;6.75;;;;;;;;;;5055831;28;20025;-65
2022/07/22 02:27:31;;;;;;;9.85;6.57;;;;;;;;;;5055750;28;20025;-65
2022/07/22 02:29:57;;;;;;;11.60;6.72;;;;;;;;;;5055579;28;20032;-65
2022/07/22 02:32:22;;;;;;;9.90;6.10;;;;;;;;;;5055536;28;20094;-65
2022/07/22 02:34:48;;;;;;;9.25;6.13;;;;;;;;;;5055329;28;20025;-65
2022/07/22 02:37:15;;;;;;;9.57;6.68;;;;;;;;;;5055519;28;20535;-65
2022/07/22 02:39:40;;;;;;;11.48;6.15;;;;;;;;;;5055498;28;20544;-64
2022/07/22 02:42:06;;;;;;;9.82;6.35;;;;;;;;;;5055398;28;20108;-64
2022/07/22 02:44:31;;;;;;;9.75;6.03;;;;;;;;;;5055431;28;20025;-65
2022/07/22 02:46:57;;;;;;;8.13;6.20;;;;;;;;;;5055403;28;20052;-65
2022/07/22 02:49:22;;;;;;;8.10;5.93;;;;;;;;;;5054921;28;20032;-65
2022/07/22 02:51:48;;;;;;;12.15;6.03;;;;;;;;;;5055187;28;20029;-64
2022/07/22 02:54:13;;;;;;;10.60;6.50;;;;;;;;;;5054503;28;20021;-67
2022/07/22 02:56:39;;;;;;;15.23;7.07;;;;;;;;;;5055280;28;20029;-64
2022/07/22 02:59:05;;;;;;;8.40;6.60;;;;;;;;;;5055128;28;20079;-65
2022/07/22 03:01:30;;;;;;;9.05;6.35;;;;;;;;;;5055142;28;20492;-64
2022/07/22 03:03:56;;;;;;;9.57;6.25;;;;;;;;;;5054813;28;20390;-64
2022/07/22 03:06:21;;;;;;;10.32;6.40;;;;;;;;;;5054917;28;20116;-64
2022/07/22 03:08:47;;;;;;;9.02;6.45;;;;;;;;;;5054797;28;20494;-65
2022/07/22 03:11:13;;;;;;;8.43;5.97;;;;;;;;;;5054807;28;20036;-65
2022/07/22 03:13:38;;;;;;;8.88;5.97;;;;;;;;;;5054883;28;20024;-64
2022/07/22 03:16:04;;;;;;;8.00;5.88;;;;;;;;;;5054831;28;20025;-64
2022/07/22 03:18:29;;;;;;;7.18;5.78;;;;;;;;;;5054205;28;20048;-64
2022/07/22 03:20:55;;;;;;;10.55;6.40;;;;;;;;;;5054651;28;20033;-65
2022/07/22 03:23:21;;;;;;;7.32;5.65;;;;;;;;;;5054582;28;20025;-65
2022/07/22 03:25:47;;;;;;;10.50;6.15;;;;;;;;;;5054552;28;20040;-64
2022/07/22 03:28:12;;;;;;;8.43;5.75;;;;;;;;;;5054515;28;20024;-64
2022/07/22 03:30:38;;;;;;;11.15;6.38;;;;;;;;;;5054373;28;20389;-65
2022/07/22 03:33:04;;;;;;;9.32;6.63;;;;;;;;;;5054235;28;20023;-65
2022/07/22 03:35:30;;;;;;;9.02;6.15;;;;;;;;;;5054345;28;20500;-64
2022/07/22 03:37:56;;;;;;;9.60;6.22;;;;;;;;;;5054184;28;20025;-65
2022/07/22 03:40:21;;;;;;;9.15;6.00;;;;;;;;;;5054373;28;20033;-65
2022/07/22 03:42:47;;;;;;;15.43;6.63;;;;;;;;;;5054236;28;20021;-65
2022/07/22 03:45:13;;;;;;;12.65;6.22;;;;;;;;;;5054111;28;20056;-65
2022/07/22 03:47:39;;;;;;;8.20;5.85;;;;;;;;;;5054204;28;20466;-65
2022/07/22 03:50:05;;;;;;;7.50;5.78;;;;;;;;;;5054038;28;20112;-65
2022/07/22 03:52:31;;;;;;;10.45;6.30;;;;;;;;;;5036010;28;20036;-65
2022/07/22 03:54:56;;;;;;;6.90;5.75;;;;;;;;;;5054140;28;20017;-64
2022/07/22 03:57:22;;;;;;;8.45;5.80;;;;;;;;;;5053957;28;20517;-65
2022/07/22 03:59:48;;;;;;;10.30;5.90;;;;;;;;;;5054024;28;20033;-65
2022/07/22 04:02:14;;;;;;;9.48;6.30;;;;;;;;;;5053752;28;20021;-64
2022/07/22 04:04:39;;;;;;;10.25;6.60;;;;;;;;;;5053160;28;20424;-64
2022/07/22 04:07:05;;;;;;;9.05;6.50;;;;;;;;;;5053548;28;20028;-65
2022/07/22 04:09:31;;;;;;;9.75;7.05;;;;;;;;;;5053624;28;20536;-65
2022/07/22 04:11:56;;;;;;;10.15;7.28;;;;;;;;;;5053662;28;20053;-64
2022/07/22 04:14:22;;;;;;;11.32;7.55;;;;;;;;;;5053668;28;20025;-65
2022/07/22 04:16:48;;;;;;;11.32;7.55;;;;;;;;;;5053500;28;20032;-67
2022/07/22 04:19:15;;;;;;;8.90;7.07;;;;;;;;;;5053184;28;20045;-64
2022/07/22 04:21:41;;;;;;;10.85;7.43;;;;;;;;;;5053714;28;20113;-65
2022/07/22 04:24:07;;;;;;;11.18;7.60;;;;;;;;;;5053566;28;20080;-65
2022/07/22 04:26:42;;;;;;;11.10;7.50;;;;;;;;;;5110749;27;20415;-65
2022/07/22 04:29:07;;;;;;;11.52;7.38;;;;;;;;;;5110492;28;20044;-66
2022/07/22 04:31:33;;;;;;;10.18;7.70;;;;;;;;;;5110362;28;20107;-66
2022/07/22 04:33:59;;;;;;;17.80;8.02;;;;;;;;;;5110498;28;20023;-66
2022/07/22 04:36:24;;;;;;;11.82;7.95;;;;;;;;;;5110430;28;20035;-65
2022/07/22 04:38:50;;;;;;;12.07;7.03;;;;;;;;;;5110267;28;20537;-66
2022/07/22 04:41:16;;;;;;;12.73;6.93;;;;;;;;;;5110222;28;20060;-66
2022/07/22 04:43:42;;;;;;;44.50;10.40;;;;;;;;;;5110115;28;20058;-66
2022/07/22 04:46:08;;;;;;;10.38;7.20;;;;;;;;;;5109905;28;20062;-66
2022/07/22 04:48:34;;;;;;;9.88;7.32;;;;;;;;;;5110091;28;20031;-65
2022/07/22 04:51:00;;;;;;;12.50;7.50;;;;;;;;;;5110166;28;20461;-68
2022/07/22 04:53:27;;;;;;;10.18;8.00;;;;;;;;;;5109879;28;20020;-67
2022/07/22 04:55:52;;;;;;;48.50;9.40;;;;;;;;;;5110091;28;20020;-66
2022/07/22 04:58:18;;;;;;;17.42;8.05;;;;;;;;;;5109866;28;20084;-66
2022/07/22 05:00:43;;;;;;;12.25;7.20;;;;;;;;;;5109995;28;20023;-67
2022/07/22 05:03:09;;;;;;;29.92;8.48;;;;;;;;;;5109730;28;20106;-67
2022/07/22 05:05:35;;;;;;;26.58;7.70;;;;;;;;;;5109634;28;20043;-67
2022/07/22 05:08:00;;;;;;;18.83;7.03;;;;;;;;;;5109740;28;20028;-65
2022/07/22 05:10:27;;;;;;;15.30;7.38;;;;;;;;;;5109730;28;20086;-64
2022/07/22 05:12:53;;;;;;;15.00;7.43;;;;;;;;;;5109365;28;20032;-65
2022/07/22 05:15:18;;;;;;;13.80;6.85;;;;;;;;;;5109501;28;20361;-65
2022/07/22 05:17:44;;;;;;;12.20;7.00;;;;;;;;;;5109564;28;20043;-65
2022/07/22 05:20:10;;;;;;;13.00;6.75;;;;;;;;;;5109276;28;20023;-65
2022/07/22 05:22:36;;;;;;;10.20;6.70;;;;;;;;;;5109228;28;20032;-65
2022/07/22 05:25:01;;;;;;;190.80;17.23;;;;;;;;;;5109190;28;20549;-65
2022/07/22 05:27:27;;;;;;;15.73;7.13;;;;;;;;;;5109119;28;20024;-64
2022/07/22 05:29:53;;;;;;;12.07;7.13;;;;;;;;;;5109343;28;20028;-65
2022/07/22 05:32:18;;;;;;;14.20;6.35;;;;;;;;;;5109423;28;20016;-65
2022/07/22 05:34:44;;;;;;;10.30;6.13;;;;;;;;;;5109351;28;20465;-67
2022/07/22 05:37:10;;;;;;;8.70;7.00;;;;;;;;;;5100647;28;20105;-66
2022/07/22 05:39:35;;;;;;;9.88;6.95;;;;;;;;;;5094318;28;20498;-66
2022/07/22 05:42:01;;;;;;;11.18;6.95;;;;;;;;;;5095425;28;20031;-66
2022/07/22 05:44:26;;;;;;;8.05;6.50;;;;;;;;;;5095506;28;20020;-65
2022/07/22 05:46:52;;;;;;;8.45;6.57;;;;;;;;;;5095554;28;20102;-65
2022/07/22 05:49:19;;;;;;;9.82;7.07;;;;;;;;;;5095536;28;20053;-65
2022/07/22 05:51:45;;;;;;;9.10;6.63;;;;;;;;;;5095220;28;20028;-65
2022/07/22 05:54:10;;;;;;;8.15;6.60;;;;;;;;;;5095429;28;20377;-65
2022/07/22 05:56:36;;;;;;;9.88;6.82;;;;;;;;;;5095250;28;20024;-65
2022/07/22 05:59:01;;;;;;;7.50;6.18;;;;;;;;;;5095545;28;20126;-65
2022/07/22 06:01:27;;;;;;;9.00;6.22;;;;;;;;;;5095152;28;20020;-65
2022/07/22 06:03:52;;;;;;;8.02;6.28;;;;;;;;;;5095065;28;20038;-65
2022/07/22 06:06:18;;;;;;;7.43;6.07;;;;;;;;;;5095178;28;20111;-66
2022/07/22 06:08:44;;;;;;;13.57;6.47;;;;;;;;;;5095142;28;20024;-65
2022/07/22 06:11:09;;;;;;;9.50;6.15;;;;;;;;;;5094849;28;20114;-65
2022/07/22 06:13:35;;;;;;;7.38;5.70;;;;;;;;;;5095071;28;20020;-65
2022/07/22 06:16:01;;;;;;;8.05;6.32;;;;;;;;;;5095003;28;20028;-65
2022/07/22 06:18:26;;;;;;;7.20;5.80;;;;;;;;;;5094891;28;20020;-65
2022/07/22 06:20:52;;;;;;;9.63;5.70;;;;;;;;;;5076585;28;20033;-65
2022/07/22 06:23:18;;;;;;;7.47;6.10;;;;;;;;;;5074562;28;20024;-64
2022/07/22 06:25:43;;;;;;;6.97;5.80;;;;;;;;;;5074182;28;20056;-64
2022/07/22 06:28:10;;;;;;;8.25;5.65;;;;;;;;;;5074819;28;20031;-65
2022/07/22 06:30:36;;;;;;;9.85;5.90;;;;;;;;;;5074358;28;20036;-65
2022/07/22 06:33:01;;;;;;;7.75;5.63;;;;;;;;;;5074399;28;20036;-65
2022/07/22 06:35:27;;;;;;;8.02;5.82;;;;;;;;;;5074300;28;20033;-64
2022/07/22 06:37:53;;;;;;;7.57;6.03;;;;;;;;;;5074331;28;20025;-65
2022/07/22 06:40:19;;;;;;;7.00;5.60;;;;;;;;;;5074139;28;20038;-64
2022/07/22 06:42:44;;;;;;;8.45;5.40;;;;;;;;;;5074290;28;20440;-64
2022/07/22 06:45:10;;;;;;;8.10;5.63;;;;;;;;;;5074116;28;20025;-64
2022/07/22 06:47:36;;;;;;;7.15;5.55;;;;;;;;;;5073853;28;20025;-65
2022/07/22 06:50:06;;;;;;;7.18;5.47;;;;;;;;;;5073180;28;20020;-65
2022/07/22 06:52:32;;;;;;;7.60;5.47;;;;;;;;;;5074122;28;20028;-65
2022/07/22 06:54:57;;;;;;;7.63;5.03;;;;;;;;;;5073857;28;20044;-65
2022/07/22 06:57:23;;;;;;;5.80;5.13;;;;;;;;;;5079981;28;20147;-64
2022/07/22 06:59:49;;;;;;;8.82;5.57;;;;;;;;;;5093997;28;20065;-65
2022/07/22 07:02:14;;;;;;;9.15;5.40;;;;;;;;;;5093903;28;20109;-63
2022/07/22 07:04:40;;;;;;;7.65;5.05;;;;;;;;;;5089804;28;20032;-63
2022/07/22 07:07:06;;;;;;;5.97;4.78;;;;;;;;;;5096760;28;20066;-63
2022/07/22 07:09:31;;;;;;;6.25;4.70;;;;;;;;;;5092574;28;21201;-63
2022/07/22 07:11:57;;;;;;;7.93;4.60;;;;;;;;;;5093307;28;20020;-63
2022/07/22 07:14:22;;;;;;;7.80;4.40;;;;;;;;;;5093355;28;20030;-63
2022/07/22 07:16:48;;;;;;;6.05;4.60;;;;;;;;;;5092963;28;20473;-62
2022/07/22 07:19:13;;;;;;;8.27;4.60;;;;;;;;;;5092966;28;20022;-63
2022/07/22 07:21:39;;;;;;;8.40;4.40;;;;;;;;;;5093272;28;20028;-62
2022/07/22 07:24:05;;;;;;;5.97;4.70;;;;;;;;;;5086291;28;20066;-62
2022/07/22 07:26:30;;;;;;;6.50;4.50;;;;;;;;;;5092644;28;20051;-63
2022/07/22 07:28:56;;;;;;;7.32;4.13;;;;;;;;;;5093244;28;20518;-62
2022/07/22 07:31:22;;;;;;;5.32;4.38;;;;;;;;;;5093036;28;20049;-62
2022/07/22 07:33:47;;;;;;;8.35;4.65;;;;;;;;;;5093071;28;20495;-62
2022/07/22 07:36:13;;;;;;;5.97;4.30;;;;;;;;;;5093018;28;20070;-63
2022/07/22 07:38:39;;;;;;;5.40;4.18;;;;;;;;;;5092880;28;20028;-64
2022/07/22 07:41:05;;;;;;;9.60;4.40;;;;;;;;;;5092947;28;20028;-63
2022/07/22 07:43:31;;;;;;;5.05;3.60;;;;;;;;;;5092611;28;20028;-63
2022/07/22 07:45:56;;;;;;;4.53;3.70;;;;;;;;;;5092699;28;20108;-63
2022/07/22 07:48:22;;;;;;;4.47;3.70;;;;;;;;;;5092835;28;20024;-63
2022/07/22 07:50:48;;;;;;;6.28;3.17;;;;;;;;;;5092849;28;20135;-63
2022/07/22 07:53:17;;;;;;;3.72;3.05;;;;;;;;;;5092466;28;20457;-63
2022/07/22 07:55:43;;;;;;;4.63;3.15;;;;;;;;;;5092848;28;20069;-63
2022/07/22 07:58:09;;;;;;;4.32;3.35;;;;;;;;;;5092724;28;20419;-63
2022/07/22 08:00:36;;;;;;;8.68;3.30;;;;;;;;;;5092607;28;20085;-63
2022/07/22 08:03:03;;;;;;;4.30;3.60;;;;;;;;;;5098792;28;20027;-62
2022/07/22 08:05:30;;;;;;;4.93;3.30;;;;;;;;;;5112491;28;20043;-63
2022/07/22 08:07:55;;;;;;;7.85;3.60;;;;;;;;;;5093981;28;20449;-63
2022/07/22 08:10:22;;;;;;;4.55;3.65;;;;;;;;;;5076224;28;20107;-63
2022/07/22 08:12:48;;;;;;;6.38;3.40;;;;;;;;;;5090986;28;20060;-63
2022/07/22 08:15:14;;;;;;;5.20;3.80;;;;;;;;;;5093154;28;20101;-63
2022/07/22 08:17:40;;;;;;;5.53;3.30;;;;;;;;;;5112741;28;20016;-64
2022/07/22 08:20:07;;;;;;;4.53;3.13;;;;;;;;;;5100705;28;20024;-63
2022/07/22 08:22:33;;;;;;;4.40;3.30;;;;;;;;;;5092000;28;20487;-63
2022/07/22 08:24:59;;;;;;;7.07;3.70;;;;;;;;;;5102820;28;20138;-63
2022/07/22 08:27:24;;;;;;;4.47;3.00;;;;;;;;;;5112623;28;20080;-63
2022/07/22 08:29:50;;;;;;;6.45;3.28;;;;;;;;;;5112410;28;20680;-64
2022/07/22 08:32:16;;;;;;;4.25;3.00;;;;;;;;;;5112675;28;20036;-64
2022/07/22 08:34:41;;;;;;;4.05;2.95;;;;;;;;;;5112633;28;20082;-63
2022/07/22 08:37:07;;;;;;;3.63;3.20;;;;;;;;;;5112507;28;20472;-64
2022/07/22 08:39:33;;;;;;;4.03;3.58;;;;;;;;;;5091200;28;20036;-63
2022/07/22 08:41:59;;;;;;;6.55;3.42;;;;;;;;;;5104530;28;20019;-64
2022/07/22 08:44:32;;;;;;;6.53;3.40;;;;;;;;;;5112628;28;20023;-64
2022/07/22 08:46:59;;;;;;;3.92;3.13;;;;;;;;;;5112653;28;20028;-64
2022/07/22 08:49:26;;;;;;;5.43;3.30;;;;;;;;;;5111996;28;20053;-64
2022/07/22 08:51:52;;;;;;;4.25;3.30;;;;;;;;;;5112049;28;20477;-64
2022/07/22 08:54:17;;;;;;;5.18;2.95;;;;;;;;;;5112699;28;20115;-64
2022/07/22 08:56:47;;;;;;;4.90;3.20;;;;;;;;;;5112577;28;20049;-64
2022/07/22 08:59:13;;;;;;;4.57;3.13;;;;;;;;;;5112391;28;20106;-63
2022/07/22 09:02:09;;;;;;;4.70;3.20;;;;;;;;;;5112537;28;20476;-63
2022/07/22 09:04:52;;;;;;;4.80;3.35;;;;;;;;;;5112375;28;20024;-64
2022/07/22 09:07:27;;;;;;;6.13;3.28;;;;;;;;;;5112291;28;20020;-65
2022/07/22 09:09:53;;;;;;;3.88;3.10;;;;;;;;;;5112094;28;20372;-64
2022/07/22 09:12:19;;;;;;;11.15;3.10;;;;;;;;;;5114365;28;20036;-65
2022/07/22 09:14:50;;;;;;;4.72;3.40;;;;;;;;;;5116299;28;20027;-66
2022/07/22 09:17:27;;;;;;;11.50;3.65;;;;;;;;;;5116166;28;20028;-65
2022/07/22 09:19:53;;;;;;;3.88;3.10;;;;;;;;;;5105810;28;20031;-65
2022/07/22 09:22:36;;;;;;;3.65;3.17;;;;;;;;;;5095881;28;20016;-65
2022/07/22 09:25:32;;;;;;;5.05;2.97;;;;;;;;;;5095330;28;20133;-65
2022/07/22 09:28:07;;;;;;;6.70;3.60;;;;;;;;;;5095116;28;20058;-64
2022/07/22 09:30:35;;;;;;;4.13;3.15;;;;;;;;;;5095518;28;20016;-67
2022/07/22 09:33:02;;;;;;;5.63;3.40;;;;;;;;;;5095597;28;20065;-65
2022/07/22 09:35:28;;;;;;;4.72;3.60;;;;;;;;;;5095186;28;20108;-65
2022/07/22 09:38:03;;;;;;;6.03;3.30;;;;;;;;;;5094105;28;20028;-65
2022/07/22 09:40:35;;;;;;;4.35;3.28;;;;;;;;;;5095346;28;20099;-64
2022/07/22 09:43:11;;;;;;;3.80;3.13;;;;;;;;;;5095385;28;20043;-66
2022/07/22 09:45:46;;;;;;;6.18;3.10;;;;;;;;;;5095177;28;20043;-64
2022/07/22 09:48:12;;;;;;;4.22;3.50;;;;;;;;;;5095103;28;20024;-63
2022/07/22 09:50:38;;;;;;;6.22;3.17;;;;;;;;;;5093511;28;20380;-64
2022/07/22 09:53:04;;;;;;;3.42;2.97;;;;;;;;;;5093901;28;20134;-64
2022/07/22 09:55:30;;;;;;;4.35;3.25;;;;;;;;;;5094978;28;20115;-64
2022/07/22 09:57:58;;;;;;;5.05;3.05;;;;;;;;;;5094755;28;20026;-64
2022/07/22 10:00:26;;;;;;;4.28;2.80;;;;;;;;;;5094918;28;20097;-64
2022/07/22 10:02:55;;;;;;;3.83;3.10;;;;;;;;;;5093355;28;20016;-64
2022/07/22 10:05:24;;;;;;;7.30;3.38;;;;;;;;;;5094677;28;20077;-65
2022/07/22 10:07:50;;;;;;;4.10;3.10;;;;;;;;;;5094822;28;20128;-67
2022/07/22 10:10:19;;;;;;;7.15;3.15;;;;;;;;;;5094865;28;20031;-67
2022/07/22 10:12:49;;;;;;;3.67;3.10;;;;;;;;;;5094778;28;20075;-66
2022/07/22 10:15:15;;;;;;;4.00;3.42;;;;;;;;;;5094626;28;20118;-65
2022/07/22 10:17:55;;;;;;;4.60;3.50;;;;;;;;;;5094645;28;20362;-65
2022/07/22 10:20:31;;;;;;;5.00;3.70;;;;;;;;;;5094618;28;20115;-66
2022/07/22 10:23:02;;;;;;;6.75;3.63;;;;;;;;;;5094305;28;20036;-65
2022/07/22 10:25:47;;;;;;;5.90;3.60;;;;;;;;;;5094223;28;20114;-66
2022/07/22 10:28:31;;;;;;;5.63;3.85;;;;;;;;;;5094340;28;20024;-67
2022/07/22 10:31:25;;;;;;;5.28;2.88;;;;;;;;;;5094462;28;20024;-66
2022/07/22 10:33:56;;;;;;;3.65;2.83;;;;;;;;;;5109910;28;20028;-66
2022/07/22 10:36:37;;;;;;;3.97;2.42;;;;;;;;;;5114647;28;20073;-67
2022/07/22 10:39:06;;;;;;;5.53;2.92;;;;;;;;;;5114670;28;20028;-68
2022/07/22 10:41:38;;;;;;;5.18;2.22;;;;;;;;;;5114561;28;20027;-67
2022/07/22 10:44:05;;;;;;;2.95;2.40;;;;;;;;;;5114485;28;20039;-66
2022/07/22 10:47:03;;;;;;;5.45;2.50;;;;;;;;;;5114161;28;20055;-67
2022/07/22 10:49:28;;;;;;;9.82;3.08;;;;;;;;;;5051351;28;20072;-67
2022/07/22 10:52:22;;;;;;;4.80;2.50;;;;;;;;;;5051170;28;20528;-67
2022/07/22 10:55:16;;;;;;;4.00;2.38;;;;;;;;;;5051584;28;20040;-67
2022/07/22 10:57:41;;;;;;;4.75;2.28;;;;;;;;;;5051565;28;20072;-66
2022/07/22 11:00:08;;;;;;;4.60;2.30;;;;;;;;;;5051431;28;20083;-66
2022/07/22 11:02:36;;;;;;;3.47;2.22;;;;;;;;;;5051119;28;20498;-67
2022/07/22 11:05:02;;;;;;;2.53;2.20;;;;;;;;;;5051336;28;20037;-67
2022/07/22 11:07:30;;;;;;;6.65;2.70;;;;;;;;;;5051263;28;20150;-67
2022/07/22 11:10:09;;;;;;;5.07;2.72;;;;;;;;;;5051018;28;20017;-67
2022/07/22 11:12:35;;;;;;;5.97;3.25;;;;;;;;;;5050893;28;20048;-67
2022/07/22 11:15:01;;;;;;;5.78;2.50;;;;;;;;;;5051227;28;20029;-68
2022/07/22 11:17:27;;;;;;;9.25;2.70;;;;;;;;;;5050821;28;20024;-67
2022/07/22 11:19:53;;;;;;;4.13;2.70;;;;;;;;;;5041169;28;20517;-65
2022/07/22 11:22:19;;;;;;;4.22;2.70;;;;;;;;;;5031060;28;20025;-65
2022/07/22 11:24:49;;;;;;;5.25;2.75;;;;;;;;;;5046345;28;20040;-66
2022/07/22 11:27:21;;;;;;;4.63;2.60;;;;;;;;;;5072851;28;20048;-66
2022/07/22 11:29:50;;;;;;;4.68;2.55;;;;;;;;;;5072675;28;20036;-66
2022/07/22 11:32:16;;;;;;;5.40;2.90;;;;;;;;;;5072993;28;20029;-66
2022/07/22 11:34:46;;;;;;;5.90;2.80;;;;;;;;;;5072401;28;20875;-66
2022/07/22 11:37:13;;;;;;;3.10;2.50;;;;;;;;;;5072778;28;20056;-66
2022/07/22 11:39:39;;;;;;;4.63;2.70;;;;;;;;;;5072854;28;20028;-66
2022/07/22 11:42:05;;;;;;;5.03;2.80;;;;;;;;;;5072729;28;20054;-66
2022/07/22 11:44:37;;;;;;;3.50;2.28;;;;;;;;;;5072359;28;20024;-65
2022/07/22 11:47:03;;;;;;;4.28;2.60;;;;;;;;;;5072747;28;20104;-66
2022/07/22 11:49:35;;;;;;;5.95;2.22;;;;;;;;;;5072693;28;20048;-66
2022/07/22 11:52:07;;;;;;;4.35;2.80;;;;;;;;;;5072594;28;20382;-65
2022/07/22 11:54:33;;;;;;;3.35;2.53;;;;;;;;;;5072682;28;20024;-66
2022/07/22 11:57:01;;;;;;;4.30;2.60;;;;;;;;;;5072593;28;20496;-64
2022/07/22 11:59:26;;;;;;;3.50;2.67;;;;;;;;;;5072331;28;20439;-67
2022/07/22 12:01:53;;;;;;;3.95;2.78;;;;;;;;;;5072386;28;20112;-67
2022/07/22 12:04:21;;;;;;;3.08;2.50;;;;;;;;;;5090289;28;20476;-66
2022/07/22 12:06:48;;;;;;;5.05;2.72;;;;;;;;;;5092491;28;20032;-66
2022/07/22 12:09:15;;;;;;;7.47;2.65;;;;;;;;;;5092118;28;20039;-64
2022/07/22 12:11:44;;;;;;;9.63;2.83;;;;;;;;;;5092794;28;20035;-66
2022/07/22 12:14:13;;;;;;;3.10;2.50;;;;;;;;;;5092506;28;20028;-65
2022/07/22 12:16:40;;;;;;;3.60;2.30;;;;;;;;;;5093023;28;20336;-65
2022/07/22 12:19:08;;;;;;;6.75;2.20;;;;;;;;;;5092286;28;20441;-66
2022/07/22 12:21:48;;;;;;;3.05;1.90;;;;;;;;;;5092437;28;20024;-66
2022/07/22 12:24:14;;;;;;;3.15;1.98;;;;;;;;;;5092458;28;20159;-66
2022/07/22 12:26:46;;;;;;;3.38;2.05;;;;;;;;;;5092354;28;20139;-65
2022/07/22 12:29:31;;;;;;;2.60;1.83;;;;;;;;;;5092034;28;20024;-64
2022/07/22 12:32:19;;;;;;;3.22;2.00;;;;;;;;;;5092154;28;20024;-63
2022/07/22 12:34:58;;;;;;;5.22;1.85;;;;;;;;;;5092674;28;20036;-65
2022/07/22 12:37:32;;;;;;;4.22;1.65;;;;;;;;;;5092355;28;20024;-65
2022/07/22 12:40:05;;;;;;;3.88;1.45;;;;;;;;;;5092516;28;20113;-66
2022/07/22 12:42:37;;;;;;;4.47;2.00;;;;;;;;;;5092189;28;20032;-63
2022/07/22 12:45:06;;;;;;;2.05;1.40;;;;;;;;;;5092287;28;20022;-65
2022/07/22 12:48:05;;;;;;;2.53;1.40;;;;;;;;;;5076941;28;20416;-66
2022/07/22 12:50:38;;;;;;;3.92;1.55;;;;;;;;;;5033577;28;20145;-65
2022/07/22 12:53:11;;;;;;;2.50;1.40;;;;;;;;;;5034247;28;20045;-64
2022/07/22 12:55:45;;;;;;;2.85;1.60;;;;;;;;;;5033358;28;20103;-63
2022/07/22 12:58:12;;;;;;;2.83;1.52;;;;;;;;;;5030049;28;20021;-63
2022/07/22 13:00:46;;;;;;;4.07;1.30;;;;;;;;;;5015955;28;20067;-65
2022/07/22 13:03:11;;;;;;;2.70;1.30;;;;;;;;;;5033575;28;20458;-65
2022/07/22 13:05:37;;;;;;;4.80;1.30;;;;;;;;;;5033358;28;20065;-63
2022/07/22 13:08:03;;;;;;;1.83;1.20;;;;;;;;;;5033480;28;20064;-66
2022/07/22 13:10:29;;;;;;;3.03;1.17;;;;;;;;;;5053003;28;20044;-66
2022/07/22 13:12:54;;;;;;;4.47;1.20;;;;;;;;;;5036582;28;20034;-66
2022/07/22 13:15:21;;;;;;;1.65;1.30;;;;;;;;;;5016782;28;20021;-66
2022/07/22 13:17:47;;;;;;;4.57;1.30;;;;;;;;;;5033569;28;20063;-66
2022/07/22 13:20:16;;;;;;;4.30;1.25;;;;;;;;;;5033273;28;20046;-65
2022/07/22 13:22:42;;;;;;;3.55;1.20;;;;;;;;;;5033218;28;20125;-65
2022/07/22 13:25:08;;;;;;;1.70;1.17;;;;;;;;;;5037815;28;20076;-65
2022/07/22 13:27:34;;;;;;;2.35;1.13;;;;;;;;;;5075010;28;20071;-65
2022/07/22 13:29:59;;;;;;;2.75;1.05;;;;;;;;;;5075292;28;20016;-64
2022/07/22 13:32:25;;;;;;;5.50;1.35;;;;;;;;;;5089659;28;20028;-65
2022/07/22 13:34:50;;;;;;;6.10;1.30;;;;;;;;;;5095649;28;20020;-67
2022/07/22 13:37:16;;;;;;;4.30;1.20;;;;;;;;;;5095480;28;20032;-65
2022/07/22 13:39:45;;;;;;;1.38;1.00;;;;;;;;;;5095509;28;20039;-67
2022/07/22 13:42:11;;;;;;;4.68;1.35;;;;;;;;;;5095214;28;20028;-67
2022/07/22 13:44:37;;;;;;;5.95;1.38;;;;;;;;;;5095304;28;20024;-67
2022/07/22 13:47:02;;;;;;;7.10;1.30;;;;;;;;;;5095242;28;20036;-66
2022/07/22 13:49:28;;;;;;;3.25;1.30;;;;;;;;;;5094927;28;20016;-66
2022/07/22 13:51:54;;;;;;;4.88;1.40;;;;;;;;;;5095163;28;20024;-67
2022/07/22 13:54:20;;;;;;;3.22;1.27;;;;;;;;;;5095248;28;20016;-67
2022/07/22 13:56:49;;;;;;;3.58;1.55;;;;;;;;;;5094691;28;20038;-64
2022/07/22 13:59:15;;;;;;;6.10;1.52;;;;;;;;;;5094557;28;20085;-65
2022/07/22 14:01:41;;;;;;;10.10;1.80;;;;;;;;;;5094785;28;20043;-67
2022/07/22 14:04:07;;;;;;;6.10;1.80;;;;;;;;;;5095095;28;20024;-67
2022/07/22 14:06:33;;;;;;;4.38;1.67;;;;;;;;;;5094841;28;20389;-67
2022/07/22 14:08:59;;;;;;;4.50;1.58;;;;;;;;;;5090070;28;20132;-66
2022/07/22 14:11:25;;;;;;;6.22;1.90;;;;;;;;;;5093342;28;20190;-66
2022/07/22 14:13:50;;;;;;;5.25;1.77;;;;;;;;;;5093585;28;20468;-67
2022/07/22 14:16:34;;;;;;;4.60;1.60;;;;;;;;;;5093910;28;20032;-65
2022/07/22 14:19:06;;;;;;;3.95;1.65;;;;;;;;;;5092052;28;20053;-66
2022/07/22 14:21:33;;;;;;;3.85;1.77;;;;;;;;;;5072797;28;20029;-66
2022/07/22 14:23:58;;;;;;;4.47;1.80;;;;;;;;;;5073961;28;20028;-66
2022/07/22 14:26:24;;;;;;;3.85;1.55;;;;;;;;;;5074021;28;20060;-66
2022/07/22 14:28:50;;;;;;;5.15;2.30;;;;;;;;;;5074234;28;20028;-66
2022/07/22 14:31:17;;;;;;;5.13;1.98;;;;;;;;;;5073910;28;20020;-66
2022/07/22 14:33:42;;;;;;;5.35;1.90;;;;;;;;;;5074120;28;20508;-66
2022/07/22 14:36:08;;;;;;;6.25;2.35;;;;;;;;;;5074105;28;20028;-64
2022/07/22 14:38:33;;;;;;;5.88;1.83;;;;;;;;;;5073530;28;20083;-66
2022/07/22 14:40:59;;;;;;;6.28;1.83;;;;;;;;;;5074179;28;20135;-67